Rochester Hills, MI (48306)

8:23 AM EDT on August 31, 2015 (GMT -0400)
KMIROCHE6 | | Change Station
CLOSE
Current Station
Personal Weather Station
Location: Rochester, MI
Elevation: 797 ft
Nearby Weather Stations
Active Advisory: Dense Fog Advisory

Elev 797 ft 42.71 °N, 83.16 °W | Updated 2 seconds ago

Partly Cloudy
Partly Cloudy
61.9 °F
Feels Like 61.9 °F
N
4.9
Wind Variable Wind from South
Gusts 4.9 mph

Today
High -- | Low -- °F
--% Chance of Precip.
Yesterday
High -- | Low -- °F
Precip. -- in
6:56 AM 8:09 PM
Waning Gibbous, 95% visible
Pressure 30.08 in
Visibility 5.0 miles
Clouds Clear
Dew Point 56 °F
Humidity 81%
Rainfall 0.00 in
Snow Depth Not available.
UV 0 out of 12
Pollen 10.50 out of 12
Air Quality Not available.
Flu Activity Not available.
METAR KVLL 311155Z AUTO 25003KT 5SM BR CLR 20/19 A3008 RMK AO2 T02020188 10222 20195
Pressure 30.08 in
Visibility 5.0 miles
Clouds Clear
Dew Point 56 °F
Humidity 81%
Rainfall 0.00 in
Snow Depth Not available.
UV 0 out of 12
Pollen 10.50 out of 12
Air Quality Not available.
Flu Activity Not available.
METAR KVLL 311155Z AUTO 25003KT 5SM BR CLR 20/19 A3008 RMK AO2 T02020188 10222 20195

10-Day Weather Forecast

×

Almanac

Astronomy

Aug. 31, 2015 Rise Set
Actual Time
Civil Twilight
Nautical Twilight
Astronomical Twilight
Moon
Length of Visible Light
Length of Day
Tomorrow will be .
, % of the Moon is Illuminated

Today's Extremes

State Highs State Lows

Community

WunderPhotos

Upload Photos

1,851,222 photos uploaded!

WunderBlogs® & News

Nearby

Air Quality

  Air Quality AQ Index Pollutant
Not available.

Snow Depth

Station Depth Elevation

Earthquake Activity

City Distance Mag. Time & Date
Minimum magnitude displayed is 2.5.

Coastal Water Temperatures

Place Temperature

Stations

Nearby Weather Stations

Station Location Temp. Windchill Dew Point Humidity Wind Precip. Elev Updated Type
                   
Dense Fog Advisory
Statement as of 4:14 AM EDT on August 31, 2015

... Dense fog advisory remains in effect until 9 am EDT this
morning...

Hazardous weather...

* areas of dense fog with visibilities reduced to 1/4 mile or
   less.

* Fog will slowly lift through the latter half of the morning.

Impacts...

* motorists will experience decreased visibility.

* The morning commute may be adversely affected.

Precautionary/preparedness actions...

* a dense fog advisory means visibilities will frequently be
   reduced to less than one quarter mile. If driving... slow
   down... use your headlights... and leave plenty of distance
   ahead of you.

* Prepare... plan... and stay informed. Visit
   http://go.USA.Gov/rr8



Mr